Time;durP1;ratioP1;P1;durP2;ratioP2;P2;SDS_P1;SDS_P2;PMS_P1;PMS_P2;Temp;Humidity;BMP_temperature;BMP_pressure;BME280_temperature;BME280_humidity;BME280_pressure;Samples;Min_cycle;Max_cycle;Signal;HPM_P1;HPM_P2
2022/07/26 00:01:17;;;;;;;3.03;0.90;;;17.90;92.10;;;;;;5066571;28;20068;-64
2022/07/26 00:03:43;;;;;;;5.05;1.35;;;17.90;92.10;;;;;;5067229;28;20116;-64
2022/07/26 00:06:09;;;;;;;;;;;18.00;92.20;;;;;;5066563;28;20508;-64
2022/07/26 00:08:34;;;;;;;3.55;0.85;;;18.00;92.20;;;;;;5066670;28;19920;-64
2022/07/26 00:11:00;;;;;;;3.92;0.70;;;18.00;92.20;;;;;;5067574;28;20489;-64
2022/07/26 00:13:26;;;;;;;5.45;0.70;;;18.00;92.30;;;;;;5066831;28;20123;-64
2022/07/26 00:15:51;;;;;;;;;;;18.00;92.40;;;;;;5064628;28;20123;-64
2022/07/26 00:18:18;;;;;;;6.18;1.38;;;18.00;92.40;;;;;;5056324;28;19929;-64
2022/07/26 00:20:44;;;;;;;4.63;0.77;;;18.00;92.50;;;;;;5052711;28;20488;-64
2022/07/26 00:23:09;;;;;;;;;;;18.10;92.30;;;;;;5053558;28;20077;-64
2022/07/26 00:25:36;;;;;;;4.80;1.05;;;18.00;92.20;;;;;;5053627;28;19920;-64
2022/07/26 00:28:02;;;;;;;1.67;0.75;;;18.00;92.50;;;;;;5052984;28;20083;-64
2022/07/26 00:30:28;;;;;;;1.40;0.70;;;18.10;92.70;;;;;;5049964;28;20147;-64
2022/07/26 00:32:53;;;;;;;;;;;18.10;92.60;;;;;;5053913;28;20533;-64
2022/07/26 00:35:20;;;;;;;3.65;0.90;;;18.00;92.40;;;;;;5053847;28;19916;-64
2022/07/26 00:37:46;;;;;;;1.95;0.70;;;18.00;92.90;;;;;;5053752;28;20085;-64
2022/07/26 00:40:12;;;;;;;11.63;1.08;;;18.00;93.10;;;;;;5052704;28;20045;-64
2022/07/26 00:42:38;;;;;;;2.72;0.75;;;17.90;92.80;;;;;;5053247;28;20492;-64
2022/07/26 00:45:04;;;;;;;;;;;18.00;92.60;;;;;;5053564;28;20559;-64
2022/07/26 00:47:31;;;;;;;8.50;1.00;;;18.00;92.50;;;;;;5052234;28;19947;-64
2022/07/26 00:49:57;;;;;;;7.13;1.08;;;18.00;93.00;;;;;;5052897;28;20043;-64
2022/07/26 00:52:22;;;;;;;;;;;18.00;92.80;;;;;;5054009;28;20044;-64
2022/07/26 00:54:50;;;;;;;1.73;0.57;;;17.90;93.00;;;;;;5052843;28;20300;-64
2022/07/26 00:57:16;;;;;;;1.98;0.82;;;17.90;93.50;;;;;;5053163;28;20053;-64
2022/07/26 00:59:42;;;;;;;;;;;17.80;93.30;;;;;;5052041;28;20405;-67
2022/07/26 01:02:08;;;;;;;6.38;1.23;;;17.70;93.50;;;;;;5053437;28;19917;-65
2022/07/26 01:04:34;;;;;;;2.33;1.13;;;17.70;93.70;;;;;;5052704;28;20040;-63
2022/07/26 01:07:00;;;;;;;;;;;17.70;94.00;;;;;;5052698;28;20045;-64
2022/07/26 01:09:26;;;;;;;2.92;1.02;;;17.60;94.20;;;;;;5052248;28;20373;-64
2022/07/26 01:11:51;;;;;;;;;;;17.40;94.50;;;;;;5052934;28;20449;-64
2022/07/26 01:14:21;;;;;;;4.68;0.85;;;17.40;94.60;;;;;;5052267;28;19920;-64
2022/07/26 01:16:47;;;;;;;4.60;0.82;;;17.50;94.60;;;;;;5051917;28;20490;-64
2022/07/26 01:19:12;;;;;;;;;;;17.50;94.80;;;;;;5051944;28;20056;-64
2022/07/26 01:21:38;;;;;;;5.43;1.30;;;17.30;94.90;;;;;;5042927;28;20004;-64
2022/07/26 01:24:04;;;;;;;8.57;1.10;;;17.20;95.20;;;;;;5044606;28;20044;-64
2022/07/26 01:26:30;;;;;;;3.33;1.10;;;17.30;95.20;;;;;;5050734;28;20050;-64
2022/07/26 01:28:55;;;;;;;;;;;17.30;95.30;;;;;;5049022;28;20052;-64
2022/07/26 01:31:21;;;;;;;8.43;0.98;;;17.20;95.70;;;;;;5050781;28;19956;-64
2022/07/26 01:33:47;;;;;;;;;;;17.20;95.90;;;;;;5052513;28;20033;-64
2022/07/26 01:36:13;;;;;;;3.85;1.00;;;17.10;95.80;;;;;;5051786;28;19921;-64
2022/07/26 01:38:39;;;;;;;;;;;17.20;95.80;;;;;;5052599;28;20547;-64
2022/07/26 01:41:05;;;;;;;3.65;1.13;;;17.20;95.90;;;;;;5051543;28;19960;-64
2022/07/26 01:43:30;;;;;;;;;;;17.10;96.00;;;;;;5052157;28;20095;-64
2022/07/26 01:45:56;;;;;;;2.38;1.20;;;17.00;96.50;;;;;;5051891;28;19970;-65
2022/07/26 01:48:22;;;;;;;;;;;17.10;96.50;;;;;;5051826;28;20037;-64
2022/07/26 01:50:47;;;;;;;7.63;2.58;;;17.10;96.60;;;;;;5051864;28;19970;-64
2022/07/26 01:53:13;;;;;;;;;;;17.10;96.80;;;;;;5051552;28;20051;-64
2022/07/26 01:55:38;;;;;;;4.85;1.27;;;17.10;96.80;;;;;;5050083;28;19923;-64
2022/07/26 01:58:05;;;;;;;4.25;1.77;;;17.10;97.00;;;;;;5050330;28;20041;-64
2022/07/26 02:00:32;;;;;;;10.10;1.20;;;17.00;97.10;;;;;;5047523;28;20069;-64
2022/07/26 02:02:57;;;;;;;5.00;1.45;;;17.00;96.90;;;;;;5049311;28;20119;-64
2022/07/26 02:05:23;;;;;;;;;;;17.10;96.90;;;;;;5050756;28;20229;-64
2022/07/26 02:07:49;;;;;;;5.47;1.20;;;17.10;97.00;;;;;;5035464;28;19924;-65
2022/07/26 02:10:14;;;;;;;;;;;17.10;97.10;;;;;;5044379;28;20090;-64
2022/07/26 02:12:40;;;;;;;6.65;1.50;;;17.10;97.10;;;;;;5048266;28;19916;-64
2022/07/26 02:15:06;;;;;;;;;;;17.10;97.00;;;;;;5046930;28;20061;-64
2022/07/26 02:17:32;;;;;;;4.07;1.20;;;17.10;97.50;;;;;;5049068;28;19917;-65
2022/07/26 02:19:58;;;;;;;;;;;17.00;97.40;;;;;;5050401;28;20037;-64
2022/07/26 02:22:23;;;;;;;3.67;1.50;;;17.00;97.60;;;;;;5049643;28;20307;-65
2022/07/26 02:24:49;;;;;;;7.78;1.70;;;17.00;97.60;;;;;;5049797;28;20068;-64
2022/07/26 02:27:15;;;;;;;6.25;1.50;;;17.00;97.70;;;;;;5050591;28;20037;-65
2022/07/26 02:29:41;;;;;;;;;;;17.00;97.50;;;;;;5050724;28;20481;-64
2022/07/26 02:32:07;;;;;;;9.73;2.03;;;17.00;97.90;;;;;;5048721;28;19970;-64
2022/07/26 02:34:32;;;;;;;4.75;1.63;;;17.00;97.90;;;;;;5049694;28;20382;-64
2022/07/26 02:36:59;;;;;;;;;;;17.00;97.80;;;;;;5047789;28;20032;-64
2022/07/26 02:39:26;;;;;;;5.88;1.58;;;17.10;97.90;;;;;;5046325;28;19931;-64
2022/07/26 02:41:57;;;;;;;4.13;1.00;;;17.00;97.70;;;;;;5046463;28;20118;-64
2022/07/26 02:44:24;;;;;;;9.55;1.70;;;17.10;97.90;;;;;;5047427;28;20040;-65
2022/07/26 02:46:50;;;;;;;3.22;1.30;;;17.10;97.90;;;;;;5045821;28;20045;-64
2022/07/26 02:49:16;;;;;;;6.15;1.98;;;17.00;97.90;;;;;;5047078;28;20125;-65
2022/07/26 02:51:42;;;;;;;;;;;17.10;98.00;;;;;;5046557;28;20116;-64
2022/07/26 02:54:07;;;;;;;6.38;2.40;;;17.00;97.90;;;;;;5045866;28;20015;-64
2022/07/26 02:56:33;;;;;;;;;;;16.90;98.20;;;;;;5045273;28;20033;-65
2022/07/26 02:58:59;;;;;;;7.25;1.88;;;16.90;98.40;;;;;;5044319;28;19999;-64
2022/07/26 03:01:24;;;;;;;;;;;16.70;98.70;;;;;;5045908;28;20866;-65
2022/07/26 03:03:50;;;;;;;4.93;1.77;;;16.70;99.30;;;;;;5046937;28;19916;-64
2022/07/26 03:06:17;;;;;;;6.07;1.52;;;16.70;98.80;;;;;;5045772;28;20133;-65
2022/07/26 03:08:42;;;;;;;2.88;1.17;;;16.70;98.90;;;;;;5045977;28;20501;-63
2022/07/26 03:11:08;;;;;;;;;;;16.70;98.80;;;;;;5047552;28;20095;-63
2022/07/26 03:13:34;;;;;;;4.10;1.40;;;16.70;99.00;;;;;;5046284;28;19978;-63
2022/07/26 03:16:00;;;;;;;7.45;1.90;;;16.70;99.00;;;;;;5045660;28;20415;-62
2022/07/26 03:18:25;;;;;;;;;;;16.70;99.40;;;;;;5046777;28;20045;-62
2022/07/26 03:20:52;;;;;;;4.32;1.50;;;16.70;99.10;;;;;;5045828;28;19921;-63
2022/07/26 03:23:17;;;;;;;3.78;1.90;;;16.70;99.10;;;;;;5044878;28;20455;-63
2022/07/26 03:25:43;;;;;;;;;;;16.70;99.20;;;;;;5045994;28;20040;-62
2022/07/26 03:28:08;;;;;;;5.07;1.65;;;16.60;99.30;;;;;;5046629;28;20026;-63
2022/07/26 03:30:34;;;;;;;;;;;16.60;99.40;;;;;;5038967;28;20053;-62
2022/07/26 03:32:59;;;;;;;4.30;1.40;;;16.60;99.60;;;;;;5046157;28;20396;-63
2022/07/26 03:35:25;;;;;;;;;;;16.60;99.60;;;;;;5044562;28;20106;-63
2022/07/26 03:37:51;;;;;;;6.40;1.42;;;16.60;99.60;;;;;;5047092;28;19924;-62
2022/07/26 03:40:17;;;;;;;;;;;16.60;99.80;;;;;;5046446;28;20119;-62
2022/07/26 03:42:44;;;;;;;12.50;1.70;;;16.60;99.80;;;;;;5046524;28;19917;-62
2022/07/26 03:45:10;;;;;;;3.58;1.30;;;16.60;99.80;;;;;;5045856;28;20041;-63
2022/07/26 03:47:36;;;;;;;;;;;16.60;99.80;;;;;;5046039;28;20048;-62
2022/07/26 03:50:05;;;;;;;6.45;2.08;;;16.60;99.90;;;;;;5046043;28;19991;-62
2022/07/26 03:52:31;;;;;;;3.90;1.85;;;16.50;99.90;;;;;;5049036;28;20128;-63
2022/07/26 03:54:56;;;;;;;;;;;16.50;99.90;;;;;;5053447;28;20524;-63
2022/07/26 03:57:22;;;;;;;6.45;2.08;;;16.50;99.90;;;;;;5052657;28;19920;-62
2022/07/26 03:59:47;;;;;;;8.18;1.98;;;16.50;99.90;;;;;;5050192;28;20112;-62
2022/07/26 04:02:13;;;;;;;4.03;1.92;;;16.40;99.90;;;;;;5051602;28;20040;-62
2022/07/26 04:04:38;;;;;;;;;;;16.40;99.90;;;;;;5053255;28;20167;-62
2022/07/26 04:07:04;;;;;;;7.60;2.30;;;16.40;99.90;;;;;;5051068;28;19924;-63
2022/07/26 04:09:29;;;;;;;;;;;16.40;99.90;;;;;;5053243;28;20044;-63
2022/07/26 04:11:55;;;;;;;3.00;1.65;;;16.50;99.90;;;;;;5051149;28;19924;-63
2022/07/26 04:14:21;;;;;;;;;;;16.50;99.90;;;;;;5051574;28;20056;-63
2022/07/26 04:16:46;;;;;;;9.20;2.40;;;16.50;99.90;;;;;;5051691;28;19917;-63
2022/07/26 04:19:12;;;;;;;;;;;16.50;99.90;;;;;;5052942;28;20044;-62
2022/07/26 04:21:38;;;;;;;8.02;2.50;;;16.50;99.90;;;;;;5047848;28;19917;-62
2022/07/26 04:24:03;;;;;;;;;;;16.50;99.90;;;;;;5034718;28;20410;-62
2022/07/26 04:26:29;;;;;;;5.05;2.17;;;16.60;99.90;;;;;;5043889;28;19921;-62
2022/07/26 04:28:54;;;;;;;;;;;16.90;99.90;;;;;;5048574;28;20128;-63
2022/07/26 04:31:20;;;;;;;11.70;2.03;;;17.00;99.90;;;;;;5043719;28;19923;-63
2022/07/26 04:33:46;;;;;;;;;;;17.30;99.70;;;;;;5052261;28;20059;-62
2022/07/26 04:36:11;;;;;;;5.82;1.95;;;17.20;99.40;;;;;;5051608;28;19916;-62
2022/07/26 04:38:37;;;;;;;;;;;17.10;99.80;;;;;;5052401;28;20099;-63
2022/07/26 04:41:03;;;;;;;3.72;1.85;;;16.90;99.90;;;;;;5051839;28;19916;-60
2022/07/26 04:43:28;;;;;;;;;;;16.90;99.90;;;;;;5050520;28;20408;-63
2022/07/26 04:45:56;;;;;;;7.45;2.20;;;16.80;99.90;;;;;;5045051;28;19924;-63
2022/07/26 04:48:21;;;;;;;7.15;2.22;;;16.80;99.90;;;;;;5043919;28;20042;-63
2022/07/26 04:50:47;;;;;;;;;;;16.80;99.90;;;;;;5040815;28;20052;-63
2022/07/26 04:53:13;;;;;;;8.55;3.30;;;16.70;99.90;;;;;;5039310;28;19924;-63
2022/07/26 04:55:39;;;;;;;;;;;16.60;99.90;;;;;;5040579;28;20067;-63
2022/07/26 04:58:05;;;;;;;9.57;3.60;;;16.70;99.90;;;;;;5039722;28;19920;-63
2022/07/26 05:00:31;;;;;;;;;;;16.70;99.90;;;;;;5044273;28;20834;-62
2022/07/26 05:02:58;;;;;;;6.90;3.33;;;16.60;99.90;;;;;;5041483;28;20438;-63
2022/07/26 05:05:27;;;;;;;11.15;3.45;;;16.60;99.90;;;;;;5039610;28;20041;-64
2022/07/26 05:07:56;;;;;;;7.88;3.88;;;16.50;99.90;;;;;;5046172;28;20090;-63
2022/07/26 05:10:35;;;;;;;9.35;4.35;;;16.50;99.90;;;;;;5050647;28;20049;-63
2022/07/26 05:13:06;;;;;;;8.52;3.90;;;16.30;99.90;;;;;;5051308;28;20044;-63
2022/07/26 05:15:33;;;;;;;8.98;3.90;;;16.40;99.90;;;;;;5051268;28;20044;-62
2022/07/26 05:18:04;;;;;;;12.93;4.05;;;16.40;99.90;;;;;;5050137;28;20047;-63
2022/07/26 05:20:30;;;;;;;8.00;4.38;;;16.40;99.90;;;;;;5051224;28;20477;-62
2022/07/26 05:22:56;;;;;;;;;;;16.30;99.90;;;;;;5030271;28;20041;-63
2022/07/26 05:25:22;;;;;;;6.90;4.28;;;16.20;99.90;;;;;;5037653;28;19986;-63
2022/07/26 05:27:47;;;;;;;;;;;16.20;99.90;;;;;;5049832;28;20037;-63
2022/07/26 05:30:13;;;;;;;14.85;5.75;;;16.10;99.90;;;;;;5041891;28;20463;-63
2022/07/26 05:32:38;;;;;;;14.10;5.15;;;16.00;99.90;;;;;;5041432;28;20038;-63
2022/07/26 05:35:04;;;;;;;;;;;16.00;99.90;;;;;;5035533;28;20401;-64
2022/07/26 05:37:30;;;;;;;13.30;4.72;;;15.90;99.90;;;;;;5039502;28;19921;-63
2022/07/26 05:39:56;;;;;;;;;;;16.00;99.90;;;;;;5041611;28;20041;-62
2022/07/26 05:42:21;;;;;;;7.72;4.65;;;16.00;99.90;;;;;;5037952;28;19948;-62
2022/07/26 05:44:47;;;;;;;;;;;16.00;99.90;;;;;;5047886;28;20052;-63
2022/07/26 05:47:12;;;;;;;13.15;5.60;;;16.00;99.90;;;;;;5044026;28;19944;-63
2022/07/26 05:49:38;;;;;;;14.15;6.05;;;16.10;99.90;;;;;;5050451;28;20036;-64
2022/07/26 05:52:04;;;;;;;;;;;16.00;99.90;;;;;;5050371;28;20404;-62
2022/07/26 05:54:29;;;;;;;9.90;5.82;;;16.00;99.90;;;;;;5050027;28;20002;-62
2022/07/26 05:56:55;;;;;;;;;;;15.90;99.90;;;;;;5050423;28;20040;-62
2022/07/26 05:59:20;;;;;;;12.45;5.30;;;16.00;99.90;;;;;;5047615;28;20445;-62
2022/07/26 06:01:46;;;;;;;;;;;15.90;99.90;;;;;;5046284;28;20033;-63
2022/07/26 06:04:12;;;;;;;7.57;6.03;;;15.90;99.90;;;;;;5049174;28;20434;-62
2022/07/26 06:06:38;;;;;;;8.32;5.32;;;15.90;99.90;;;;;;5048867;28;20115;-64
2022/07/26 06:09:03;;;;;;;;;;;15.90;99.90;;;;;;5050751;28;20549;-64
2022/07/26 06:11:29;;;;;;;9.52;5.13;;;15.90;99.90;;;;;;5049530;28;20011;-66
2022/07/26 06:13:54;;;;;;;;;;;15.80;99.90;;;;;;5046923;28;20557;-65
2022/07/26 06:16:20;;;;;;;13.02;5.72;;;15.80;99.90;;;;;;5048718;28;19916;-64
2022/07/26 06:18:45;;;;;;;;;;;15.80;99.90;;;;;;5050260;28;20123;-63
2022/07/26 06:21:11;;;;;;;13.55;6.68;;;15.80;99.90;;;;;;5044284;28;19922;-64
2022/07/26 06:23:37;;;;;;;;;;;15.80;99.90;;;;;;5029990;28;20073;-63
2022/07/26 06:26:04;;;;;;;13.90;5.20;;;15.80;99.90;;;;;;5048161;28;19970;-64
2022/07/26 06:28:30;;;;;;;12.90;7.15;;;15.70;99.90;;;;;;5047625;28;20121;-61
2022/07/26 06:30:55;;;;;;;12.45;6.70;;;15.70;99.90;;;;;;5045717;28;20517;-63
2022/07/26 06:33:21;;;;;;;;;;;15.60;99.90;;;;;;5049298;28;20047;-65
2022/07/26 06:35:46;;;;;;;8.60;6.18;;;15.60;99.90;;;;;;5049376;28;19921;-64
2022/07/26 06:38:12;;;;;;;;;;;15.50;99.90;;;;;;5049898;28;20485;-64
2022/07/26 06:40:37;;;;;;;16.13;6.57;;;15.60;99.90;;;;;;5049229;28;19966;-63
2022/07/26 06:43:03;;;;;;;;;;;15.50;99.90;;;;;;5050311;28;20124;-63
2022/07/26 06:45:29;;;;;;;10.35;6.75;;;15.40;99.90;;;;;;5049984;28;20381;-63
2022/07/26 06:47:55;;;;;;;;;;;15.30;99.90;;;;;;5049440;28;20044;-64
2022/07/26 06:50:21;;;;;;;12.35;6.50;;;15.30;99.90;;;;;;5049364;28;19978;-63
2022/07/26 06:52:46;;;;;;;;;;;15.30;99.90;;;;;;5050345;28;20554;-65
2022/07/26 06:55:12;;;;;;;9.02;6.32;;;15.30;99.90;;;;;;5048934;28;19974;-62
2022/07/26 06:57:37;;;;;;;;;;;15.30;99.90;;;;;;5049330;28;20485;-62
2022/07/26 07:00:05;;;;;;;9.48;5.50;;;15.40;99.90;;;;;;5044062;28;20007;-62
2022/07/26 07:02:31;;;;;;;9.95;6.00;;;15.40;99.90;;;;;;5043799;28;20091;-62
2022/07/26 07:04:57;;;;;;;;;;;15.50;99.90;;;;;;5046870;28;20746;-62
2022/07/26 07:07:22;;;;;;;9.55;5.15;;;15.40;99.90;;;;;;5046161;28;20026;-63
2022/07/26 07:09:48;;;;;;;;;;;15.50;99.90;;;;;;5049195;28;20065;-64
2022/07/26 07:12:14;;;;;;;7.97;5.28;;;15.50;99.90;;;;;;5049132;28;20356;-61
2022/07/26 07:14:39;;;;;;;;;;;15.50;99.90;;;;;;5048885;28;20084;-62
2022/07/26 07:17:06;;;;;;;7.65;6.43;;;15.50;99.90;;;;;;5048602;28;19920;-62
2022/07/26 07:19:35;;;;;;;10.93;7.47;;;15.40;99.90;;;;;;5047776;28;20040;-63
2022/07/26 07:22:01;;;;;;;14.07;7.45;;;15.40;99.90;;;;;;5047791;28;20045;-62
2022/07/26 07:24:27;;;;;;;12.18;6.85;;;15.30;99.90;;;;;;5047582;28;20041;-63
2022/07/26 07:26:52;;;;;;;;;;;15.30;99.90;;;;;;5038505;28;20504;-62
2022/07/26 07:29:19;;;;;;;7.53;5.55;;;15.40;99.90;;;;;;5046570;28;19928;-61
2022/07/26 07:31:46;;;;;;;8.80;6.35;;;15.40;99.90;;;;;;5048615;28;20037;-62
2022/07/26 07:34:16;;;;;;;10.15;6.65;;;15.50;99.90;;;;;;5052985;28;20454;-62
2022/07/26 07:36:43;;;;;;;9.50;6.97;;;15.40;99.90;;;;;;5052077;28;20051;-61
2022/07/26 07:39:09;;;;;;;10.15;6.97;;;15.50;99.90;;;;;;5052820;28;20057;-62
2022/07/26 07:41:37;;;;;;;;;;;15.50;99.90;;;;;;5053957;28;20554;-63
2022/07/26 07:44:03;;;;;;;12.80;7.43;;;15.50;99.90;;;;;;5053515;28;19923;-60
2022/07/26 07:46:29;;;;;;;13.82;7.25;;;15.50;99.90;;;;;;5052185;28;20041;-62
2022/07/26 07:48:54;;;;;;;;;;;15.60;99.90;;;;;;5053299;28;20485;-63
2022/07/26 07:51:20;;;;;;;10.45;6.45;;;15.70;99.90;;;;;;5053161;28;19970;-62
2022/07/26 07:53:46;;;;;;;;;;;15.80;99.90;;;;;;5052741;28;20087;-63
2022/07/26 07:56:11;;;;;;;14.10;8.07;;;15.90;99.90;;;;;;5052785;28;19916;-63
2022/07/26 07:58:37;;;;;;;;;;;15.90;99.90;;;;;;5051575;28;20127;-62
2022/07/26 08:01:02;;;;;;;15.63;7.75;;;15.90;99.90;;;;;;5052143;28;19966;-62
2022/07/26 08:03:28;;;;;;;;;;;15.90;99.90;;;;;;5052686;28;20475;-62
2022/07/26 08:05:53;;;;;;;16.35;8.15;;;15.90;99.90;;;;;;5050264;28;19942;-63
2022/07/26 08:08:19;;;;;;;;;;;15.90;99.90;;;;;;5052991;28;20033;-60
2022/07/26 08:10:45;;;;;;;15.15;7.50;;;15.90;99.90;;;;;;5052234;28;19925;-61
2022/07/26 08:13:10;;;;;;;;;;;16.00;99.90;;;;;;5052545;28;20100;-62
2022/07/26 08:15:36;;;;;;;14.13;7.72;;;16.10;99.90;;;;;;5051815;28;19917;-62
2022/07/26 08:18:02;;;;;;;16.73;7.72;;;16.20;99.90;;;;;;5050462;28;20029;-60
2022/07/26 08:20:27;;;;;;;;;;;16.10;99.90;;;;;;5052294;28;20044;-63
2022/07/26 08:22:53;;;;;;;15.88;6.82;;;16.20;99.90;;;;;;5043209;28;19923;-63
2022/07/26 08:25:19;;;;;;;;;;;16.30;99.90;;;;;;5052439;28;20037;-62
2022/07/26 08:27:44;;;;;;;14.85;7.38;;;16.30;99.90;;;;;;5051594;28;19924;-62
2022/07/26 08:30:10;;;;;;;;;;;16.20;99.90;;;;;;5049413;28;20079;-63
2022/07/26 08:32:36;;;;;;;15.85;8.10;;;16.10;99.90;;;;;;5051525;28;20373;-61
2022/07/26 08:35:03;;;;;;;;;;;16.10;99.90;;;;;;5052285;28;20545;-61
2022/07/26 08:37:28;;;;;;;13.70;7.72;;;16.00;99.90;;;;;;5051824;28;19920;-62
2022/07/26 08:39:54;;;;;;;;;;;16.10;99.90;;;;;;5051438;28;20037;-63
2022/07/26 08:42:23;;;;;;;14.35;7.80;;;16.10;99.90;;;;;;5051675;28;20015;-62
2022/07/26 08:44:50;;;;;;;13.63;7.57;;;16.00;99.90;;;;;;5051208;28;20497;-63
2022/07/26 08:47:20;;;;;;;17.08;8.10;;;16.10;99.90;;;;;;5050762;28;20405;-62
2022/07/26 08:49:46;;;;;;;27.20;8.70;;;16.20;99.90;;;;;;5051444;28;20045;-62
2022/07/26 08:52:12;;;;;;;;;;;16.30;99.90;;;;;;5052364;28;20432;-62
2022/07/26 08:54:48;;;;;;;14.38;7.72;;;16.40;99.90;;;;;;5050658;28;20440;-63
2022/07/26 08:57:14;;;;;;;17.52;9.73;;;16.50;99.90;;;;;;5049995;28;20045;-64
2022/07/26 08:59:40;;;;;;;;;;;16.70;99.90;;;;;;5043716;28;20409;-62
2022/07/26 09:02:09;;;;;;;22.25;10.70;;;16.80;99.90;;;;;;5048599;28;19952;-63
2022/07/26 09:04:39;;;;;;;16.73;9.18;;;16.80;99.90;;;;;;5050537;28;20116;-63
2022/07/26 09:07:09;;;;;;;20.20;11.00;;;17.00;99.90;;;;;;5047802;28;20075;-63
2022/07/26 09:09:53;;;;;;;17.30;10.30;;;17.30;99.90;;;;;;5052038;28;20037;-61
2022/07/26 09:12:19;;;;;;;18.92;10.65;;;17.60;99.90;;;;;;5050591;28;20086;-62
2022/07/26 09:14:45;;;;;;;;;;;17.50;99.90;;;;;;5052594;28;20045;-62
2022/07/26 09:17:12;;;;;;;14.43;10.70;;;17.70;99.90;;;;;;5051684;28;19951;-62
2022/07/26 09:19:37;;;;;;;18.98;10.55;;;17.60;99.90;;;;;;5052004;28;20052;-62
2022/07/26 09:22:07;;;;;;;;;;;17.70;99.90;;;;;;5051989;28;20036;-63
2022/07/26 09:24:42;;;;;;;16.50;9.77;;;18.00;99.90;;;;;;5051704;28;20385;-62
2022/07/26 09:27:15;;;;;;;19.85;10.32;;;18.30;99.90;;;;;;5048152;28;20107;-63
2022/07/26 09:29:49;;;;;;;19.77;10.48;;;18.60;99.90;;;;;;5049607;28;20056;-62
2022/07/26 09:32:16;;;;;;;18.58;10.77;;;18.70;99.90;;;;;;5050723;28;20052;-62
2022/07/26 09:34:43;;;;;;;14.45;9.02;;;18.60;99.90;;;;;;5051396;28;20123;-63
2022/07/26 09:37:09;;;;;;;16.02;10.35;;;18.40;99.90;;;;;;5050930;28;20067;-62
2022/07/26 09:39:53;;;;;;;;;;;18.50;99.90;;;;;;5052041;28;20041;-64
2022/07/26 09:42:18;;;;;;;15.95;8.63;;;18.40;99.90;;;;;;5051503;28;20723;-64
2022/07/26 09:44:44;;;;;;;;;;;18.60;99.90;;;;;;5051926;28;20041;-63
2022/07/26 09:47:09;;;;;;;18.42;10.60;;;18.90;99.90;;;;;;5050438;28;20299;-62
2022/07/26 09:49:35;;;;;;;20.55;10.50;;;18.80;99.90;;;;;;5050659;28;20110;-63
2022/07/26 09:52:00;;;;;;;;;;;18.70;99.90;;;;;;5048645;28;20043;-63
2022/07/26 09:54:30;;;;;;;18.55;10.55;;;18.50;99.90;;;;;;5044382;28;19924;-64
2022/07/26 09:56:56;;;;;;;17.85;10.02;;;18.30;99.90;;;;;;5042548;28;20835;-62
2022/07/26 09:59:24;;;;;;;17.05;9.15;;;18.20;99.90;;;;;;5050964;28;20087;-63
2022/07/26 10:01:52;;;;;;;15.05;9.90;;;18.10;99.90;;;;;;5045351;28;20086;-62
2022/07/26 10:04:19;;;;;;;18.65;10.40;;;18.00;99.90;;;;;;5049517;28;20041;-63
2022/07/26 10:06:45;;;;;;;18.70;10.73;;;17.90;99.90;;;;;;5047707;28;20408;-62
2022/07/26 10:09:11;;;;;;;;;;;17.90;99.90;;;;;;5050846;28;20037;-65
2022/07/26 10:11:37;;;;;;;20.02;10.27;;;17.80;99.90;;;;;;5040368;28;19967;-65
2022/07/26 10:14:21;;;;;;;;;;;17.70;99.90;;;;;;5045998;28;20041;-63
2022/07/26 10:16:46;;;;;;;16.40;10.35;;;17.80;99.90;;;;;;5046965;28;19952;-62
2022/07/26 10:19:32;;;;;;;;;;;17.90;99.90;;;;;;5043275;28;20056;-63
2022/07/26 10:22:23;;;;;;;15.70;11.18;;;18.00;99.90;;;;;;5042795;28;19924;-63
2022/07/26 10:24:50;;;;;;;16.80;10.48;;;18.10;99.90;;;;;;5050225;28;20040;-63
2022/07/26 10:27:41;;;;;;;16.25;10.25;;;18.10;99.90;;;;;;5050226;28;20059;-63
2022/07/26 10:30:16;;;;;;;18.85;10.93;;;18.00;99.90;;;;;;5048450;28;20045;-62
2022/07/26 10:33:05;;;;;;;18.67;10.40;;;18.00;99.90;;;;;;5050093;28;20044;-63
2022/07/26 10:35:43;;;;;;;17.00;10.70;;;17.90;99.90;;;;;;5050388;28;20041;-62
2022/07/26 10:38:21;;;;;;;19.42;10.82;;;18.00;99.90;;;;;;5049455;28;20060;-63
2022/07/26 10:41:04;;;;;;;13.23;8.68;;;18.10;99.90;;;;;;5048043;28;20067;-64
2022/07/26 10:43:31;;;;;;;15.75;9.35;;;18.30;99.90;;;;;;5050593;28;20144;-65
2022/07/26 10:46:15;;;;;;;15.90;9.07;;;18.30;99.90;;;;;;5050190;28;20134;-64
2022/07/26 10:49:02;;;;;;;20.02;10.18;;;18.50;99.90;;;;;;5050256;28;20505;-64
2022/07/26 10:51:32;;;;;;;17.08;8.68;;;18.90;99.90;;;;;;5049626;28;20076;-63
2022/07/26 10:54:04;;;;;;;14.70;7.93;;;19.20;99.90;;;;;;5049951;28;20098;-64
2022/07/26 10:56:29;;;;;;;10.55;6.68;;;19.60;99.90;;;;;;5048653;28;20474;-64
2022/07/26 10:58:56;;;;;;;;;;;19.70;99.90;;;;;;5048858;28;20186;-64
2022/07/26 11:01:21;;;;;;;11.80;5.77;;;19.70;99.90;;;;;;5049059;28;19917;-64
2022/07/26 11:03:47;;;;;;;8.40;5.90;;;20.00;99.90;;;;;;5049416;28;20109;-64
2022/07/26 11:06:15;;;;;;;12.60;6.47;;;19.80;99.90;;;;;;5049606;28;20045;-65
2022/07/26 11:08:42;;;;;;;10.35;5.53;;;20.00;99.90;;;;;;5049839;28;20405;-63
2022/07/26 11:11:08;;;;;;;11.02;6.13;;;20.20;99.90;;;;;;5045975;28;20041;-63
2022/07/26 11:13:35;;;;;;;;;;;20.30;99.90;;;;;;5049020;28;20044;-64
2022/07/26 11:16:05;;;;;;;12.05;5.50;;;20.40;99.90;;;;;;5050087;28;19927;-63
2022/07/26 11:18:36;;;;;;;9.95;5.35;;;20.30;99.90;;;;;;5049531;28;20416;-64
2022/07/26 11:21:14;;;;;;;10.70;6.00;;;20.10;99.90;;;;;;5046142;28;20056;-64
2022/07/26 11:23:43;;;;;;;9.60;5.50;;;20.00;99.90;;;;;;5042877;28;20045;-64
2022/07/26 11:26:22;;;;;;;9.57;5.55;;;19.80;99.90;;;;;;5049781;28;20060;-64
2022/07/26 11:29:01;;;;;;;10.43;6.85;;;19.60;99.90;;;;;;5047331;28;20524;-64
2022/07/26 11:31:35;;;;;;;9.23;5.50;;;19.30;99.90;;;;;;5049178;28;20740;-64
2022/07/26 11:34:02;;;;;;;9.25;5.40;;;19.20;99.90;;;;;;5049698;28;20068;-64
2022/07/26 11:36:55;;;;;;;9.18;5.28;;;19.20;99.90;;;;;;5050134;28;20084;-64
2022/07/26 11:39:21;;;;;;;6.95;4.75;;;19.10;99.90;;;;;;5046757;28;20057;-63
2022/07/26 11:41:47;;;;;;;6.40;5.10;;;19.00;99.90;;;;;;5049446;28;20110;-64
2022/07/26 11:44:14;;;;;;;;;;;18.90;99.90;;;;;;5050432;28;20472;-64
2022/07/26 11:46:45;;;;;;;10.32;6.05;;;18.90;99.90;;;;;;5049374;28;19974;-65
2022/07/26 11:49:13;;;;;;;12.43;6.38;;;18.70;99.90;;;;;;5048688;28;20049;-64
2022/07/26 11:51:46;;;;;;;6.45;4.80;;;18.70;99.90;;;;;;5045305;28;20044;-65
2022/07/26 11:54:12;;;;;;;10.85;4.32;;;18.70;99.90;;;;;;5049667;28;20041;-64
2022/07/26 11:56:37;;;;;;;;;;;18.70;99.90;;;;;;5049864;28;20041;-64
2022/07/26 11:59:03;;;;;;;6.28;4.22;;;18.70;99.90;;;;;;5042551;28;20018;-64
2022/07/26 12:01:29;;;;;;;;;;;18.70;99.90;;;;;;5046552;28;20048;-65
2022/07/26 12:03:55;;;;;;;9.88;4.10;;;18.70;99.90;;;;;;5049359;28;19917;-64
2022/07/26 12:06:23;;;;;;;8.10;3.78;;;18.60;99.90;;;;;;5045532;28;20386;-65
2022/07/26 12:08:54;;;;;;;10.40;3.45;;;18.50;99.90;;;;;;5061070;28;20456;-65
2022/07/26 12:11:21;;;;;;;7.75;3.08;;;18.50;99.90;;;;;;5037262;28;20079;-65
2022/07/26 12:13:55;;;;;;;5.70;3.75;;;18.60;99.90;;;;;;5050771;28;20040;-65
2022/07/26 12:16:33;;;;;;;7.05;3.30;;;18.60;99.90;;;;;;5053189;28;20037;-64
2022/07/26 12:18:59;;;;;;;5.10;3.10;;;18.60;99.90;;;;;;5051677;28;20049;-64
2022/07/26 12:21:43;;;;;;;;;;;18.60;99.90;;;;;;5044838;28;20047;-65
2022/07/26 12:24:10;;;;;;;5.47;3.10;;;18.60;99.90;;;;;;5034052;28;19920;-64
2022/07/26 12:26:36;;;;;;;5.28;3.25;;;18.60;99.90;;;;;;5051166;28;20138;-65
2022/07/26 12:29:24;;;;;;;5.97;3.55;;;18.70;99.90;;;;;;5048864;28;20447;-65
2022/07/26 12:32:20;;;;;;;5.15;3.35;;;18.70;99.90;;;;;;5049883;28;20040;-65
2022/07/26 12:34:59;;;;;;;8.18;3.03;;;18.60;99.90;;;;;;5049916;28;20425;-65
2022/07/26 12:37:28;;;;;;;5.78;3.55;;;18.70;99.90;;;;;;5050009;28;20498;-65
2022/07/26 12:40:14;;;;;;;13.13;3.35;;;18.70;99.90;;;;;;5048362;28;20152;-65
2022/07/26 12:42:50;;;;;;;5.77;3.43;;;18.70;99.90;;;;;;5050784;28;20497;-65
2022/07/26 12:45:19;;;;;;;9.77;4.65;;;18.70;99.90;;;;;;5050216;28;20049;-65
2022/07/26 12:47:47;;;;;;;7.95;4.20;;;18.90;99.90;;;;;;5050126;28;20045;-65
2022/07/26 12:50:15;;;;;;;10.93;3.78;;;18.90;99.90;;;;;;5050255;28;20037;-65
2022/07/26 12:52:41;;;;;;;6.25;3.25;;;19.20;99.90;;;;;;5050857;28;20493;-65
2022/07/26 12:55:10;;;;;;;6.88;4.25;;;19.20;99.90;;;;;;5050447;28;20049;-65
2022/07/26 12:57:35;;;;;;;5.70;3.75;;;19.20;99.90;;;;;;5049979;28;20044;-65
2022/07/26 13:00:02;;;;;;;;;;;19.40;99.90;;;;;;5046342;28;20033;-65
2022/07/26 13:02:28;;;;;;;6.60;3.90;;;19.40;99.90;;;;;;5037453;28;19971;-65
2022/07/26 13:04:53;;;;;;;;;;;19.60;99.90;;;;;;5048905;28;20065;-66
2022/07/26 13:07:19;;;;;;;7.63;2.78;;;19.90;99.90;;;;;;5040267;28;19980;-65
2022/07/26 13:09:45;;;;;;;;;;;20.30;99.90;;;;;;5041366;28;20083;-65